createdAt,value
2022-09-29T00:01:06.088Z,91.52
2022-09-29T00:03:36.459Z,90.67
2022-09-29T00:06:03.596Z,90.57
2022-09-29T00:08:31.687Z,90.38
2022-09-29T00:10:58.772Z,89.85
2022-09-29T00:13:28.189Z,90.17
2022-09-29T00:16:00.924Z,90.03
2022-09-29T00:18:29.522Z,89.82
2022-09-29T00:21:08.491Z,90.50
2022-09-29T00:23:36.621Z,89.39
2022-09-29T00:26:32.116Z,89.53
2022-09-29T00:29:00.771Z,89.93
2022-09-29T00:31:33.617Z,90.70
2022-09-29T00:34:00.717Z,90.59
2022-09-29T00:36:30.970Z,91.09
2022-09-29T00:38:59.086Z,90.81
2022-09-29T00:41:33.999Z,89.14
2022-09-29T00:44:05.994Z,88.52
2022-09-29T00:46:50.780Z,90.43
2022-09-29T00:49:40.837Z,88.82
2022-09-29T00:52:27.142Z,87.94
2022-09-29T00:55:01.134Z,87.42
2022-09-29T00:57:37.680Z,86.85
2022-09-29T01:00:10.899Z,87.46
2022-09-29T01:02:44.250Z,87.86
2022-09-29T01:05:19.048Z,87.62
2022-09-29T01:07:48.460Z,87.40
2022-09-29T01:10:17.208Z,86.72
2022-09-29T01:12:50.559Z,86.90
2022-09-29T01:15:21.859Z,86.18
2022-09-29T01:17:52.068Z,85.99
2022-09-29T01:20:22.525Z,85.87
2022-09-29T01:23:12.292Z,85.33
2022-09-29T01:25:49.049Z,85.50
2022-09-29T01:28:45.314Z,84.92
2022-09-29T01:31:34.832Z,86.67
2022-09-29T01:34:15.513Z,85.22
2022-09-29T01:37:01.374Z,86.17
2022-09-29T01:39:45.758Z,85.56
2022-09-29T01:42:44.866Z,85.21
2022-09-29T01:45:38.873Z,86.66
2022-09-29T01:48:18.681Z,85.73
2022-09-29T01:50:55.046Z,85.78
2022-09-29T01:53:29.738Z,84.78
2022-09-29T01:56:08.434Z,84.55
2022-09-29T01:58:49.177Z,84.85
2022-09-29T02:01:21.331Z,84.34
2022-09-29T02:04:00.778Z,84.12
2022-09-29T02:06:41.726Z,84.96
2022-09-29T02:09:18.325Z,85.00
2022-09-29T02:11:52.996Z,85.10
2022-09-29T02:14:33.110Z,84.89
2022-09-29T02:17:21.055Z,83.91
2022-09-29T02:19:51.563Z,83.15
2022-09-29T02:22:21.562Z,82.42
2022-09-29T02:24:55.503Z,82.43
2022-09-29T02:27:23.830Z,82.17
2022-09-29T02:29:51.430Z,82.18
2022-09-29T02:32:23.602Z,82.38
2022-09-29T02:34:52.296Z,83.56
2022-09-29T02:37:39.104Z,83.46
2022-09-29T02:40:27.743Z,83.31
2022-09-29T02:43:23.681Z,83.63
2022-09-29T02:46:24.627Z,84.40
2022-09-29T02:49:15.933Z,84.24
2022-09-29T02:51:49.358Z,84.82
2022-09-29T02:54:39.861Z,84.18
2022-09-29T02:57:46.953Z,84.27
2022-09-29T03:00:16.291Z,85.85
2022-09-29T03:02:44.903Z,85.40
2022-09-29T03:05:22.672Z,85.83
2022-09-29T03:07:49.925Z,85.00
2022-09-29T03:10:19.471Z,86.45
2022-09-29T03:12:49.693Z,85.85
2022-09-29T03:15:17.869Z,85.74
2022-09-29T03:17:47.785Z,86.08
2022-09-29T03:20:14.742Z,87.58
2022-09-29T03:22:46.156Z,86.79
2022-09-29T03:25:14.708Z,88.31
2022-09-29T03:27:42.328Z,88.00
2022-09-29T03:30:12.258Z,87.89
2022-09-29T03:32:39.186Z,88.77
2022-09-29T03:35:07.133Z,88.79
2022-09-29T03:37:34.094Z,88.94
2022-09-29T03:40:01.746Z,88.13
2022-09-29T03:42:28.548Z,89.94
2022-09-29T03:44:57.609Z,88.37
2022-09-29T03:47:27.048Z,89.72
2022-09-29T03:49:58.558Z,88.79
2022-09-29T03:52:30.841Z,89.97
2022-09-29T03:54:57.682Z,88.69
2022-09-29T03:57:24.544Z,88.31
2022-09-29T03:59:54.720Z,88.09
2022-09-29T04:02:23.822Z,88.79
2022-09-29T04:04:53.265Z,88.02
2022-09-29T04:07:20.163Z,87.73
2022-09-29T04:09:47.010Z,88.82
2022-09-29T04:12:13.965Z,88.39
2022-09-29T04:14:43.902Z,86.86
2022-09-29T04:17:10.849Z,87.13
2022-09-29T04:19:39.935Z,87.74
2022-09-29T04:22:09.720Z,87.50
2022-09-29T04:24:40.284Z,88.61
2022-09-29T04:27:09.370Z,90.05
2022-09-29T04:29:39.328Z,88.80
2022-09-29T04:32:11.318Z,90.86
2022-09-29T04:34:38.300Z,90.85
2022-09-29T04:37:05.128Z,89.82
2022-09-29T04:39:31.924Z,89.12
2022-09-29T04:42:00.868Z,88.67
2022-09-29T04:44:27.776Z,90.11
2022-09-29T04:46:54.770Z,89.67
2022-09-29T04:49:21.686Z,89.90
2022-09-29T04:51:51.176Z,90.27
2022-09-29T04:54:18.016Z,89.88
2022-09-29T04:56:50.382Z,90.98
2022-09-29T04:59:20.617Z,90.53
2022-09-29T05:01:49.599Z,90.56
2022-09-29T05:04:16.495Z,90.92
2022-09-29T05:06:43.315Z,91.00
2022-09-29T05:09:10.124Z,92.11
2022-09-29T05:11:40.019Z,91.51
2022-09-29T05:14:09.942Z,91.09
2022-09-29T05:16:36.990Z,90.12
2022-09-29T05:19:04.141Z,91.73
2022-09-29T05:21:31.032Z,91.84
2022-09-29T05:24:00.528Z,91.35
2022-09-29T05:26:29.567Z,91.65
2022-09-29T05:28:58.860Z,90.54
2022-09-29T05:31:25.845Z,90.87
2022-09-29T05:33:52.747Z,91.18
2022-09-29T05:36:19.616Z,93.19
2022-09-29T05:38:46.490Z,91.99
2022-09-29T05:41:22.533Z,92.35
2022-09-29T05:43:51.602Z,93.37
2022-09-29T05:46:18.596Z,93.57
2022-09-29T05:48:52.690Z,91.24
2022-09-29T05:51:24.729Z,90.46
2022-09-29T05:53:52.031Z,89.68
2022-09-29T05:56:27.359Z,87.97
2022-09-29T05:58:54.824Z,83.97
2022-09-29T06:01:27.238Z,81.85
2022-09-29T06:03:58.568Z,79.91
2022-09-29T06:06:29.865Z,79.79
2022-09-29T06:09:02.102Z,78.30
2022-09-29T06:11:31.987Z,76.85
2022-09-29T06:14:02.389Z,75.42
2022-09-29T06:16:32.188Z,74.03
2022-09-29T06:19:01.398Z,72.14
2022-09-29T06:21:30.322Z,72.89
2022-09-29T06:23:58.185Z,71.10
2022-09-29T06:26:26.681Z,70.71
2022-09-29T06:28:54.978Z,72.86
2022-09-29T06:31:25.573Z,72.20
2022-09-29T06:33:52.983Z,71.81
2022-09-29T06:36:40.879Z,70.91
2022-09-29T06:39:15.486Z,70.50
2022-09-29T06:41:48.756Z,71.70
2022-09-29T06:44:18.208Z,73.09
2022-09-29T06:46:45.165Z,76.31
2022-09-29T06:49:13.605Z,76.98
2022-09-29T06:51:45.905Z,76.90
2022-09-29T06:54:20.312Z,76.82
2022-09-29T06:56:49.553Z,77.59
2022-09-29T06:59:20.138Z,78.02
2022-09-29T07:01:50.992Z,78.10
2022-09-29T07:04:20.373Z,79.76
2022-09-29T07:06:48.160Z,79.67
2022-09-29T07:09:17.677Z,79.64
2022-09-29T07:11:51.318Z,81.77
2022-09-29T07:14:22.573Z,82.20
2022-09-29T07:16:50.202Z,81.86
2022-09-29T07:19:18.689Z,82.44
2022-09-29T07:21:49.300Z,82.17
2022-09-29T07:24:19.430Z,81.87
2022-09-29T07:26:46.395Z,81.72
2022-09-29T07:29:15.929Z,82.76
2022-09-29T07:31:51.941Z,82.92
2022-09-29T07:34:21.186Z,82.80
2022-09-29T07:36:48.278Z,83.69
2022-09-29T07:39:18.142Z,84.16
2022-09-29T07:41:50.671Z,83.76
2022-09-29T07:44:18.183Z,81.89
2022-09-29T07:46:45.144Z,81.27
2022-09-29T07:49:14.089Z,80.62
2022-09-29T07:51:41.058Z,78.22
2022-09-29T07:54:08.125Z,74.11
2022-09-29T07:56:35.478Z,71.00
2022-09-29T07:59:03.320Z,65.04
2022-09-29T08:01:33.391Z,62.87
2022-09-29T08:04:02.665Z,63.80
2022-09-29T08:06:33.144Z,63.39
2022-09-29T08:09:05.115Z,63.92
2022-09-29T08:11:36.443Z,60.23
2022-09-29T08:14:03.460Z,56.96
2022-09-29T08:16:33.433Z,53.89
2022-09-29T08:19:01.307Z,48.57
2022-09-29T08:21:29.985Z,45.38
2022-09-29T08:23:56.943Z,46.42
2022-09-29T08:26:40.508Z,45.70
2022-09-29T08:29:09.375Z,44.45
2022-09-29T08:31:40.396Z,44.68
2022-09-29T08:34:13.568Z,46.43
2022-09-29T08:36:45.426Z,49.59
2022-09-29T08:39:15.532Z,52.43
2022-09-29T08:42:07.719Z,53.37
2022-09-29T08:44:39.647Z,61.64
2022-09-29T08:47:21.363Z,58.33
2022-09-29T08:49:58.386Z,54.16
2022-09-29T08:52:48.406Z,57.20
2022-09-29T08:55:21.531Z,61.14
2022-09-29T08:57:57.531Z,61.81
2022-09-29T09:00:40.603Z,59.92
2022-09-29T09:03:37.891Z,58.15
2022-09-29T09:06:13.557Z,53.05
2022-09-29T09:08:49.949Z,46.50
2022-09-29T09:11:28.841Z,44.40
2022-09-29T09:14:23.518Z,40.22
2022-09-29T09:17:33.150Z,34.84
2022-09-29T09:20:37.598Z,32.16
2022-09-29T09:23:19.933Z,34.61
2022-09-29T09:25:58.209Z,31.54
2022-09-29T09:28:33.600Z,30.23
2022-09-29T09:31:41.216Z,30.55
2022-09-29T09:34:34.499Z,31.56
2022-09-29T09:37:33.493Z,29.60
2022-09-29T09:40:24.602Z,31.86
2022-09-29T09:43:07.979Z,34.16
2022-09-29T09:45:42.292Z,39.40
2022-09-29T09:48:27.217Z,42.41
2022-09-29T09:51:01.941Z,41.39
2022-09-29T09:53:39.865Z,40.86
2022-09-29T09:56:27.145Z,37.12
2022-09-29T09:59:23.535Z,32.20
2022-09-29T10:01:50.391Z,32.10
2022-09-29T10:04:17.287Z,33.80
2022-09-29T10:06:45.460Z,36.06
2022-09-29T10:09:16.267Z,36.13
2022-09-29T10:11:46.487Z,38.02
2022-09-29T10:14:23.752Z,43.56
2022-09-29T10:17:01.759Z,42.23
2022-09-29T10:19:57.103Z,41.73
2022-09-29T10:22:25.251Z,41.56
2022-09-29T10:25:19.218Z,36.49
2022-09-29T10:27:53.446Z,33.76
2022-09-29T10:30:34.227Z,32.00
2022-09-29T10:33:10.384Z,29.55
2022-09-29T10:35:41.606Z,29.44
2022-09-29T10:38:24.110Z,30.39
2022-09-29T10:41:04.520Z,31.44
2022-09-29T10:43:45.987Z,36.02
2022-09-29T10:46:48.481Z,38.99
2022-09-29T10:49:25.010Z,42.99
2022-09-29T10:52:05.378Z,42.86
2022-09-29T10:54:40.754Z,43.37
2022-09-29T10:57:25.600Z,38.60
2022-09-29T10:59:56.151Z,35.76
2022-09-29T11:02:36.968Z,38.72
2022-09-29T11:05:31.731Z,41.44
2022-09-29T11:07:58.694Z,42.00
2022-09-29T11:10:38.967Z,44.55
2022-09-29T11:13:24.189Z,47.64
2022-09-29T11:15:54.137Z,47.93
2022-09-29T11:18:34.422Z,48.89
2022-09-29T11:21:21.644Z,49.68
2022-09-29T11:24:08.536Z,49.47
2022-09-29T11:26:55.292Z,49.44
2022-09-29T11:29:47.783Z,50.97
2022-09-29T11:32:35.661Z,47.57
2022-09-29T11:35:31.613Z,48.16
2022-09-29T11:38:02.191Z,48.81
2022-09-29T11:40:43.624Z,42.68
2022-09-29T11:43:52.000Z,39.08
2022-09-29T11:46:22.294Z,37.52
2022-09-29T11:49:01.487Z,37.05
2022-09-29T11:52:18.868Z,32.62
2022-09-29T11:55:30.113Z,37.16
2022-09-29T11:58:11.434Z,38.11
2022-09-29T12:01:18.281Z,40.23
2022-09-29T12:04:27.924Z,43.35
2022-09-29T12:07:16.773Z,47.56
2022-09-29T12:10:22.298Z,49.17
2022-09-29T12:12:57.651Z,50.19
2022-09-29T12:15:48.638Z,45.59
2022-09-29T12:18:21.852Z,43.64
2022-09-29T12:20:53.381Z,40.82
2022-09-29T12:23:25.054Z,38.43
2022-09-29T12:26:11.688Z,34.74
2022-09-29T12:28:59.854Z,38.37
2022-09-29T12:31:39.742Z,39.35
2022-09-29T12:34:19.099Z,39.26
2022-09-29T12:37:19.534Z,39.11
2022-09-29T12:40:24.141Z,42.96
2022-09-29T12:43:19.481Z,46.89
2022-09-29T12:46:06.176Z,48.66
2022-09-29T12:49:14.436Z,47.01
2022-09-29T12:51:52.429Z,47.21
2022-09-29T12:54:28.606Z,48.94
2022-09-29T12:57:26.403Z,48.98
2022-09-29T13:00:11.818Z,53.02
2022-09-29T13:02:50.940Z,51.61
2022-09-29T13:05:45.933Z,52.02
2022-09-29T13:08:42.757Z,52.91
2022-09-29T13:11:50.862Z,54.05
2022-09-29T13:14:46.151Z,53.76
2022-09-29T13:17:57.350Z,52.01
2022-09-29T13:20:35.768Z,51.07
2022-09-29T13:23:48.229Z,50.75
2022-09-29T13:26:16.231Z,50.46
2022-09-29T13:28:51.359Z,53.17
2022-09-29T13:31:32.552Z,52.98
2022-09-29T13:34:02.517Z,52.06
2022-09-29T13:36:40.030Z,52.59
2022-09-29T13:39:42.166Z,51.37
2022-09-29T13:42:44.880Z,50.54
2022-09-29T13:45:16.210Z,49.28
2022-09-29T13:48:17.943Z,47.91
2022-09-29T13:51:01.759Z,48.18
2022-09-29T13:53:37.739Z,48.16
2022-09-29T13:56:06.591Z,48.33
2022-09-29T13:58:35.543Z,47.79
2022-09-29T14:01:06.042Z,48.17
2022-09-29T14:03:38.299Z,47.01
2022-09-29T14:06:36.460Z,46.92
2022-09-29T14:09:18.748Z,47.45
2022-09-29T14:11:54.911Z,47.05
2022-09-29T14:14:25.725Z,46.71
2022-09-29T14:17:29.465Z,46.72
2022-09-29T14:20:16.865Z,46.29
2022-09-29T14:22:43.707Z,46.48
2022-09-29T14:25:10.901Z,46.55
2022-09-29T14:27:39.916Z,46.20
2022-09-29T14:30:09.757Z,46.22
2022-09-29T14:32:47.811Z,46.30
2022-09-29T14:35:36.518Z,46.17
2022-09-29T14:38:16.196Z,46.70
2022-09-29T14:41:33.815Z,47.01
2022-09-29T14:44:52.742Z,47.27
2022-09-29T14:48:28.082Z,47.90
2022-09-29T14:51:38.445Z,48.23
2022-09-29T14:54:41.728Z,49.05
2022-09-29T14:57:34.082Z,49.87
2022-09-29T15:00:24.329Z,51.05
2022-09-29T15:03:04.993Z,50.91
2022-09-29T15:05:39.845Z,51.14
2022-09-29T15:08:29.508Z,53.75
2022-09-29T15:10:56.935Z,55.90
2022-09-29T15:13:31.397Z,57.84
2022-09-29T15:16:04.192Z,58.17
2022-09-29T15:19:01.999Z,59.36
2022-09-29T15:21:46.198Z,62.74
2022-09-29T15:24:31.403Z,65.61
2022-09-29T15:27:09.361Z,65.67
2022-09-29T15:29:36.271Z,67.74
2022-09-29T15:32:03.341Z,68.21
2022-09-29T15:34:30.239Z,70.79
2022-09-29T15:37:01.352Z,71.07
2022-09-29T15:39:46.239Z,71.07
2022-09-29T15:42:23.403Z,71.80
2022-09-29T15:45:00.715Z,72.86
2022-09-29T15:47:38.026Z,74.05
2022-09-29T15:50:25.345Z,74.84
2022-09-29T15:52:52.454Z,73.12
2022-09-29T15:55:25.237Z,73.03
2022-09-29T15:57:57.879Z,72.24
2022-09-29T16:00:26.864Z,72.37
2022-09-29T16:03:27.318Z,74.17
2022-09-29T16:06:05.017Z,74.80
2022-09-29T16:08:41.983Z,75.98
2022-09-29T16:11:21.072Z,77.95
2022-09-29T16:13:56.085Z,76.65
2022-09-29T16:16:33.936Z,76.12
2022-09-29T16:19:10.012Z,77.60
2022-09-29T16:21:42.159Z,75.80
2022-09-29T16:24:21.130Z,76.64
2022-09-29T16:26:52.529Z,76.15
2022-09-29T16:29:19.227Z,76.35
2022-09-29T16:31:48.701Z,76.45
2022-09-29T16:34:22.022Z,75.94
2022-09-29T16:36:53.189Z,75.81
2022-09-29T16:39:24.476Z,76.13
2022-09-29T16:41:58.089Z,76.82
2022-09-29T16:44:47.658Z,75.92
2022-09-29T16:47:29.635Z,76.59
2022-09-29T16:50:12.354Z,77.03
2022-09-29T16:52:48.219Z,77.25
2022-09-29T16:55:28.110Z,78.63
2022-09-29T16:58:13.605Z,78.00
2022-09-29T17:00:49.852Z,77.47
2022-09-29T17:03:17.195Z,76.52
2022-09-29T17:05:48.827Z,78.09
2022-09-29T17:08:22.312Z,79.95
2022-09-29T17:10:55.663Z,81.06
2022-09-29T17:13:23.898Z,80.23
2022-09-29T17:15:52.796Z,81.13
2022-09-29T17:18:25.077Z,81.12
2022-09-29T17:20:52.036Z,81.10
2022-09-29T17:23:19.029Z,81.47
2022-09-29T17:25:50.132Z,82.18
2022-09-29T17:28:26.807Z,84.66
2022-09-29T17:30:55.860Z,85.56
2022-09-29T17:33:26.157Z,86.67
2022-09-29T17:35:55.916Z,86.93
2022-09-29T17:38:27.804Z,86.90
2022-09-29T17:41:02.884Z,86.77
2022-09-29T17:43:31.722Z,86.02
2022-09-29T17:46:01.189Z,85.06
2022-09-29T17:48:30.101Z,85.29
2022-09-29T17:50:59.402Z,85.78
2022-09-29T17:53:32.584Z,86.09
2022-09-29T17:56:02.796Z,85.92
2022-09-29T17:58:29.710Z,86.64
2022-09-29T18:00:59.623Z,87.65
2022-09-29T18:03:29.392Z,85.98
2022-09-29T18:06:00.016Z,86.53
2022-09-29T18:08:29.530Z,85.25
2022-09-29T18:10:59.432Z,85.90
2022-09-29T18:13:33.479Z,86.72
2022-09-29T18:16:01.974Z,86.59
2022-09-29T18:18:32.141Z,86.92
2022-09-29T18:21:01.468Z,88.14
2022-09-29T18:23:32.885Z,87.70
2022-09-29T18:25:59.874Z,87.00
2022-09-29T18:28:27.630Z,86.10
2022-09-29T18:31:13.600Z,85.96
2022-09-29T18:33:41.580Z,85.86
2022-09-29T18:36:10.615Z,86.51
2022-09-29T18:38:40.007Z,87.74
2022-09-29T18:41:11.101Z,87.07
2022-09-29T18:43:42.699Z,85.86
2022-09-29T18:46:13.479Z,86.93
2022-09-29T18:48:41.659Z,86.58
2022-09-29T18:51:13.426Z,88.03
2022-09-29T18:53:42.186Z,87.76
2022-09-29T18:56:17.410Z,87.20
2022-09-29T18:58:44.980Z,86.88
2022-09-29T19:01:18.754Z,87.40
2022-09-29T19:03:45.597Z,87.03
2022-09-29T19:06:18.332Z,87.26
2022-09-29T19:08:49.292Z,87.52
2022-09-29T19:11:22.355Z,87.68
2022-09-29T19:13:54.268Z,87.19
2022-09-29T19:16:28.210Z,86.92
2022-09-29T19:18:55.674Z,86.54
2022-09-29T19:21:22.505Z,86.26
2022-09-29T19:23:56.217Z,85.76
2022-09-29T19:26:27.795Z,87.23
2022-09-29T19:28:54.588Z,87.92
2022-09-29T19:31:24.458Z,87.79
2022-09-29T19:33:55.296Z,88.23
2022-09-29T19:36:22.867Z,88.83
2022-09-29T19:38:49.998Z,88.79
2022-09-29T19:41:26.473Z,88.74
2022-09-29T19:43:53.897Z,89.47
2022-09-29T19:46:21.844Z,89.06
2022-09-29T19:48:49.283Z,90.06
2022-09-29T19:51:37.092Z,89.82
2022-09-29T19:54:14.831Z,89.60
2022-09-29T19:56:53.952Z,90.51
2022-09-29T19:59:29.053Z,90.05
2022-09-29T20:02:00.137Z,90.35
2022-09-29T20:04:34.157Z,89.69
2022-09-29T20:07:02.853Z,90.70
2022-09-29T20:09:32.329Z,91.56
2022-09-29T20:12:00.692Z,91.58
2022-09-29T20:14:28.089Z,89.63
2022-09-29T20:16:57.257Z,90.79
2022-09-29T20:19:31.881Z,88.82
2022-09-29T20:22:01.697Z,90.03
2022-09-29T20:24:28.833Z,89.75
2022-09-29T20:26:57.834Z,89.55
2022-09-29T20:29:25.223Z,88.83
2022-09-29T20:31:53.393Z,88.40
2022-09-29T20:34:22.192Z,88.23
2022-09-29T20:36:55.021Z,88.11
2022-09-29T20:39:25.735Z,87.86
2022-09-29T20:41:55.006Z,88.07
2022-09-29T20:44:27.821Z,88.07
2022-09-29T20:46:56.732Z,87.62
2022-09-29T20:49:25.589Z,88.13
2022-09-29T20:51:53.280Z,89.05
2022-09-29T20:54:23.461Z,89.82
2022-09-29T20:56:50.988Z,90.57
2022-09-29T20:59:23.452Z,89.83
2022-09-29T21:01:52.647Z,90.84
2022-09-29T21:04:22.438Z,90.52
2022-09-29T21:06:52.031Z,89.93
2022-09-29T21:09:24.979Z,89.00
2022-09-29T21:11:56.998Z,88.67
2022-09-29T21:14:27.816Z,89.17
2022-09-29T21:16:55.412Z,88.18
2022-09-29T21:19:26.123Z,89.10
2022-09-29T21:21:56.330Z,89.09
2022-09-29T21:24:23.509Z,88.94
2022-09-29T21:26:50.697Z,88.55
2022-09-29T21:29:18.765Z,89.02
2022-09-29T21:31:49.270Z,87.73
2022-09-29T21:34:21.197Z,87.23
2022-09-29T21:36:50.981Z,87.72
2022-09-29T21:39:20.280Z,87.47
2022-09-29T21:41:47.467Z,88.42
2022-09-29T21:44:20.302Z,89.62
2022-09-29T21:46:50.493Z,89.70
2022-09-29T21:49:19.372Z,89.85
2022-09-29T21:51:49.185Z,89.67
2022-09-29T21:54:22.996Z,89.73
2022-09-29T21:56:50.793Z,90.07
2022-09-29T21:59:20.192Z,90.73
2022-09-29T22:01:48.068Z,90.74
2022-09-29T22:04:18.510Z,91.25
2022-09-29T22:06:46.142Z,92.24
2022-09-29T22:09:22.726Z,91.29
2022-09-29T22:11:50.336Z,89.62
2022-09-29T22:14:18.496Z,89.10
2022-09-29T22:16:47.466Z,89.83
2022-09-29T22:19:23.861Z,89.22
2022-09-29T22:21:55.646Z,90.43
2022-09-29T22:24:24.034Z,89.21
2022-09-29T22:26:53.874Z,89.94
2022-09-29T22:29:21.047Z,90.25
2022-09-29T22:31:48.130Z,89.95
2022-09-29T22:34:15.127Z,89.18
2022-09-29T22:36:44.675Z,89.13
2022-09-29T22:39:11.964Z,87.98
2022-09-29T22:41:42.152Z,87.88
2022-09-29T22:44:09.535Z,86.79
2022-09-29T22:46:36.733Z,87.09
2022-09-29T22:49:04.337Z,86.52
2022-09-29T22:51:33.278Z,87.03
2022-09-29T22:54:00.120Z,87.17
2022-09-29T22:56:29.392Z,86.92
2022-09-29T22:59:01.586Z,86.28
2022-09-29T23:01:29.238Z,86.71
2022-09-29T23:03:56.659Z,87.60
2022-09-29T23:06:23.622Z,87.79
2022-09-29T23:08:51.076Z,88.11
2022-09-29T23:11:21.221Z,87.82
2022-09-29T23:13:48.885Z,88.76
2022-09-29T23:16:17.368Z,89.66
2022-09-29T23:18:46.111Z,90.16
2022-09-29T23:21:20.939Z,89.89
2022-09-29T23:23:54.857Z,90.49
2022-09-29T23:26:29.277Z,91.06
2022-09-29T23:28:56.431Z,91.31
2022-09-29T23:31:26.566Z,91.53
2022-09-29T23:33:56.517Z,91.36
2022-09-29T23:36:26.088Z,93.06
2022-09-29T23:39:13.543Z,92.75
2022-09-29T23:41:49.956Z,93.26
2022-09-29T23:44:23.456Z,92.20
2022-09-29T23:46:57.003Z,93.03
2022-09-29T23:49:31.357Z,93.15
2022-09-29T23:52:01.634Z,92.76
2022-09-29T23:54:32.109Z,91.45
2022-09-29T23:56:59.078Z,92.55
2022-09-29T23:59:26.479Z,91.50
